sensor_id;sensor_type;location;lat;lon;timestamp;P1;durP1;ratioP1;P2;durP2;ratioP2
59189;SDS011;50749;51.636;4.948;2023-06-14T00:01:44;4.53;;;2.90;;
59189;SDS011;50749;51.636;4.948;2023-06-14T00:04:13;6.68;;;2.50;;
59189;SDS011;50749;51.636;4.948;2023-06-14T00:06:42;4.13;;;2.55;;
59189;SDS011;50749;51.636;4.948;2023-06-14T00:09:10;4.40;;;2.40;;
59189;SDS011;50749;51.636;4.948;2023-06-14T00:11:40;3.28;;;2.42;;
59189;SDS011;50749;51.636;4.948;2023-06-14T00:14:06;4.57;;;2.85;;
59189;SDS011;50749;51.636;4.948;2023-06-14T00:16:32;3.17;;;2.25;;
59189;SDS011;50749;51.636;4.948;2023-06-14T00:18:58;3.53;;;2.17;;
59189;SDS011;50749;51.636;4.948;2023-06-14T00:21:25;3.70;;;2.35;;
59189;SDS011;50749;51.636;4.948;2023-06-14T00:23:53;3.38;;;2.13;;
59189;SDS011;50749;51.636;4.948;2023-06-14T00:26:19;3.80;;;2.88;;
59189;SDS011;50749;51.636;4.948;2023-06-14T00:28:45;3.53;;;2.42;;
59189;SDS011;50749;51.636;4.948;2023-06-14T00:31:11;3.10;;;2.28;;
59189;SDS011;50749;51.636;4.948;2023-06-14T00:33:36;4.28;;;2.50;;
59189;SDS011;50749;51.636;4.948;2023-06-14T00:36:02;4.15;;;2.35;;
59189;SDS011;50749;51.636;4.948;2023-06-14T00:38:28;3.38;;;2.35;;
59189;SDS011;50749;51.636;4.948;2023-06-14T00:40:54;4.70;;;2.38;;
59189;SDS011;50749;51.636;4.948;2023-06-14T00:43:19;3.30;;;2.25;;
59189;SDS011;50749;51.636;4.948;2023-06-14T00:45:45;5.85;;;2.67;;
59189;SDS011;50749;51.636;4.948;2023-06-14T00:48:11;6.30;;;2.40;;
59189;SDS011;50749;51.636;4.948;2023-06-14T00:50:39;3.00;;;2.20;;
59189;SDS011;50749;51.636;4.948;2023-06-14T00:53:06;2.85;;;2.15;;
59189;SDS011;50749;51.636;4.948;2023-06-14T00:55:31;4.00;;;2.45;;
59189;SDS011;50749;51.636;4.948;2023-06-14T00:57:58;3.58;;;1.95;;
59189;SDS011;50749;51.636;4.948;2023-06-14T01:00:24;2.53;;;2.15;;
59189;SDS011;50749;51.636;4.948;2023-06-14T01:02:50;3.67;;;2.38;;
59189;SDS011;50749;51.636;4.948;2023-06-14T01:05:16;3.83;;;2.22;;
59189;SDS011;50749;51.636;4.948;2023-06-14T01:10:32;3.15;;;1.95;;
59189;SDS011;50749;51.636;4.948;2023-06-14T01:13:15;4.30;;;2.10;;
59189;SDS011;50749;51.636;4.948;2023-06-14T01:15:47;5.13;;;2.53;;
59189;SDS011;50749;51.636;4.948;2023-06-14T01:18:13;3.05;;;2.45;;
59189;SDS011;50749;51.636;4.948;2023-06-14T01:20:45;4.00;;;2.28;;
59189;SDS011;50749;51.636;4.948;2023-06-14T01:23:19;2.70;;;1.92;;
59189;SDS011;50749;51.636;4.948;2023-06-14T01:25:46;3.47;;;2.10;;
59189;SDS011;50749;51.636;4.948;2023-06-14T01:28:15;4.53;;;2.38;;
59189;SDS011;50749;51.636;4.948;2023-06-14T01:30:42;2.90;;;2.22;;
59189;SDS011;50749;51.636;4.948;2023-06-14T01:33:21;4.53;;;2.28;;
59189;SDS011;50749;51.636;4.948;2023-06-14T01:35:49;5.05;;;2.30;;
59189;SDS011;50749;51.636;4.948;2023-06-14T01:38:17;3.63;;;2.53;;
59189;SDS011;50749;51.636;4.948;2023-06-14T01:40:45;3.65;;;2.30;;
59189;SDS011;50749;51.636;4.948;2023-06-14T01:43:13;3.08;;;2.10;;
59189;SDS011;50749;51.636;4.948;2023-06-14T01:45:40;5.15;;;2.40;;
59189;SDS011;50749;51.636;4.948;2023-06-14T01:48:06;3.20;;;2.38;;
59189;SDS011;50749;51.636;4.948;2023-06-14T01:50:33;4.10;;;2.25;;
59189;SDS011;50749;51.636;4.948;2023-06-14T01:52:59;3.58;;;2.00;;
59189;SDS011;50749;51.636;4.948;2023-06-14T01:55:25;3.72;;;2.08;;
59189;SDS011;50749;51.636;4.948;2023-06-14T01:57:51;4.10;;;2.30;;
59189;SDS011;50749;51.636;4.948;2023-06-14T02:00:17;2.70;;;2.10;;
59189;SDS011;50749;51.636;4.948;2023-06-14T02:02:43;3.03;;;2.03;;
59189;SDS011;50749;51.636;4.948;2023-06-14T02:05:10;3.75;;;2.10;;
59189;SDS011;50749;51.636;4.948;2023-06-14T02:07:35;3.05;;;1.90;;
59189;SDS011;50749;51.636;4.948;2023-06-14T02:10:02;2.72;;;1.90;;
59189;SDS011;50749;51.636;4.948;2023-06-14T02:12:28;2.90;;;1.88;;
59189;SDS011;50749;51.636;4.948;2023-06-14T02:14:54;3.20;;;2.17;;
59189;SDS011;50749;51.636;4.948;2023-06-14T02:17:21;3.00;;;2.00;;
59189;SDS011;50749;51.636;4.948;2023-06-14T02:19:47;5.53;;;2.30;;
59189;SDS011;50749;51.636;4.948;2023-06-14T02:22:14;4.20;;;2.53;;
59189;SDS011;50749;51.636;4.948;2023-06-14T02:24:43;5.40;;;2.30;;
59189;SDS011;50749;51.636;4.948;2023-06-14T02:27:09;2.83;;;2.20;;
59189;SDS011;50749;51.636;4.948;2023-06-14T02:29:37;3.85;;;2.00;;
59189;SDS011;50749;51.636;4.948;2023-06-14T02:32:04;2.45;;;1.98;;
59189;SDS011;50749;51.636;4.948;2023-06-14T02:34:35;2.92;;;1.90;;
59189;SDS011;50749;51.636;4.948;2023-06-14T02:37:01;3.42;;;1.95;;
59189;SDS011;50749;51.636;4.948;2023-06-14T02:39:28;4.75;;;2.08;;
59189;SDS011;50749;51.636;4.948;2023-06-14T02:41:54;4.30;;;2.13;;
59189;SDS011;50749;51.636;4.948;2023-06-14T02:44:23;4.78;;;2.38;;
59189;SDS011;50749;51.636;4.948;2023-06-14T02:46:51;2.97;;;1.77;;
59189;SDS011;50749;51.636;4.948;2023-06-14T02:49:16;5.55;;;2.40;;
59189;SDS011;50749;51.636;4.948;2023-06-14T02:51:42;4.95;;;2.10;;
59189;SDS011;50749;51.636;4.948;2023-06-14T02:54:08;5.22;;;2.17;;
59189;SDS011;50749;51.636;4.948;2023-06-14T02:56:33;3.58;;;2.13;;
59189;SDS011;50749;51.636;4.948;2023-06-14T02:58:59;3.17;;;2.00;;
59189;SDS011;50749;51.636;4.948;2023-06-14T03:01:26;6.32;;;1.90;;
59189;SDS011;50749;51.636;4.948;2023-06-14T03:04:02;4.55;;;2.00;;
59189;SDS011;50749;51.636;4.948;2023-06-14T03:06:29;3.55;;;2.05;;
59189;SDS011;50749;51.636;4.948;2023-06-14T03:08:55;2.83;;;1.90;;
59189;SDS011;50749;51.636;4.948;2023-06-14T03:11:25;4.45;;;1.95;;
59189;SDS011;50749;51.636;4.948;2023-06-14T03:13:52;4.05;;;2.22;;
59189;SDS011;50749;51.636;4.948;2023-06-14T03:16:19;3.55;;;1.88;;
59189;SDS011;50749;51.636;4.948;2023-06-14T03:18:50;3.40;;;1.75;;
59189;SDS011;50749;51.636;4.948;2023-06-14T03:21:17;3.70;;;2.13;;
59189;SDS011;50749;51.636;4.948;2023-06-14T03:23:47;2.78;;;1.92;;
59189;SDS011;50749;51.636;4.948;2023-06-14T03:26:13;3.25;;;1.90;;
59189;SDS011;50749;51.636;4.948;2023-06-14T03:28:46;2.80;;;2.00;;
59189;SDS011;50749;51.636;4.948;2023-06-14T03:31:12;4.80;;;2.00;;
59189;SDS011;50749;51.636;4.948;2023-06-14T03:33:39;3.05;;;2.00;;
59189;SDS011;50749;51.636;4.948;2023-06-14T03:36:05;4.75;;;2.10;;
59189;SDS011;50749;51.636;4.948;2023-06-14T03:38:32;5.38;;;2.17;;
59189;SDS011;50749;51.636;4.948;2023-06-14T03:40:58;2.42;;;1.70;;
59189;SDS011;50749;51.636;4.948;2023-06-14T03:43:23;3.00;;;1.95;;
59189;SDS011;50749;51.636;4.948;2023-06-14T03:45:49;3.67;;;2.10;;
59189;SDS011;50749;51.636;4.948;2023-06-14T03:48:14;3.40;;;2.00;;
59189;SDS011;50749;51.636;4.948;2023-06-14T03:50:40;4.07;;;2.00;;
59189;SDS011;50749;51.636;4.948;2023-06-14T03:53:08;3.20;;;2.00;;
59189;SDS011;50749;51.636;4.948;2023-06-14T03:55:34;3.92;;;2.03;;
59189;SDS011;50749;51.636;4.948;2023-06-14T03:58:00;2.90;;;2.00;;
59189;SDS011;50749;51.636;4.948;2023-06-14T04:00:26;3.67;;;2.25;;
59189;SDS011;50749;51.636;4.948;2023-06-14T04:02:51;3.67;;;2.10;;
59189;SDS011;50749;51.636;4.948;2023-06-14T04:05:18;3.30;;;2.08;;
59189;SDS011;50749;51.636;4.948;2023-06-14T04:07:44;3.38;;;2.22;;
59189;SDS011;50749;51.636;4.948;2023-06-14T04:10:12;2.63;;;1.73;;
59189;SDS011;50749;51.636;4.948;2023-06-14T04:12:38;3.47;;;1.92;;
59189;SDS011;50749;51.636;4.948;2023-06-14T04:15:04;3.03;;;1.77;;
59189;SDS011;50749;51.636;4.948;2023-06-14T04:17:31;2.80;;;1.90;;
59189;SDS011;50749;51.636;4.948;2023-06-14T04:20:01;2.63;;;1.80;;
59189;SDS011;50749;51.636;4.948;2023-06-14T04:22:29;4.43;;;2.13;;
59189;SDS011;50749;51.636;4.948;2023-06-14T04:24:56;3.47;;;1.80;;
59189;SDS011;50749;51.636;4.948;2023-06-14T04:27:22;3.75;;;2.63;;
59189;SDS011;50749;51.636;4.948;2023-06-14T04:29:53;4.53;;;1.80;;
59189;SDS011;50749;51.636;4.948;2023-06-14T04:32:28;3.60;;;1.83;;
59189;SDS011;50749;51.636;4.948;2023-06-14T04:34:55;9.32;;;2.35;;
59189;SDS011;50749;51.636;4.948;2023-06-14T04:37:21;6.32;;;2.38;;
59189;SDS011;50749;51.636;4.948;2023-06-14T04:39:48;7.53;;;2.03;;
59189;SDS011;50749;51.636;4.948;2023-06-14T04:42:14;10.40;;;2.35;;
59189;SDS011;50749;51.636;4.948;2023-06-14T04:44:44;3.75;;;2.50;;
59189;SDS011;50749;51.636;4.948;2023-06-14T04:47:10;4.93;;;2.15;;
59189;SDS011;50749;51.636;4.948;2023-06-14T04:49:38;7.85;;;2.63;;
59189;SDS011;50749;51.636;4.948;2023-06-14T04:52:05;11.43;;;2.28;;
59189;SDS011;50749;51.636;4.948;2023-06-14T04:54:32;3.78;;;2.20;;
59189;SDS011;50749;51.636;4.948;2023-06-14T04:56:58;5.28;;;1.90;;
59189;SDS011;50749;51.636;4.948;2023-06-14T04:59:24;4.13;;;2.50;;
59189;SDS011;50749;51.636;4.948;2023-06-14T05:01:50;13.48;;;2.58;;
59189;SDS011;50749;51.636;4.948;2023-06-14T05:04:17;5.38;;;1.85;;
59189;SDS011;50749;51.636;4.948;2023-06-14T05:06:43;6.35;;;2.42;;
59189;SDS011;50749;51.636;4.948;2023-06-14T05:09:15;5.68;;;2.08;;
59189;SDS011;50749;51.636;4.948;2023-06-14T05:11:44;3.40;;;1.88;;
59189;SDS011;50749;51.636;4.948;2023-06-14T05:14:11;6.15;;;2.17;;
59189;SDS011;50749;51.636;4.948;2023-06-14T05:16:37;9.05;;;2.28;;
59189;SDS011;50749;51.636;4.948;2023-06-14T05:19:04;7.93;;;2.53;;
59189;SDS011;50749;51.636;4.948;2023-06-14T05:21:30;5.40;;;2.20;;
59189;SDS011;50749;51.636;4.948;2023-06-14T05:23:57;4.60;;;2.20;;
59189;SDS011;50749;51.636;4.948;2023-06-14T05:26:23;5.43;;;2.00;;
59189;SDS011;50749;51.636;4.948;2023-06-14T05:28:57;5.00;;;2.20;;
59189;SDS011;50749;51.636;4.948;2023-06-14T05:31:23;10.88;;;2.55;;
59189;SDS011;50749;51.636;4.948;2023-06-14T05:33:50;5.00;;;2.50;;
59189;SDS011;50749;51.636;4.948;2023-06-14T05:36:16;3.55;;;1.83;;
59189;SDS011;50749;51.636;4.948;2023-06-14T05:38:41;7.85;;;2.42;;
59189;SDS011;50749;51.636;4.948;2023-06-14T05:41:07;4.63;;;1.95;;
59189;SDS011;50749;51.636;4.948;2023-06-14T05:43:33;4.38;;;2.08;;
59189;SDS011;50749;51.636;4.948;2023-06-14T05:45:58;6.25;;;1.98;;
59189;SDS011;50749;51.636;4.948;2023-06-14T05:48:24;11.50;;;2.40;;
59189;SDS011;50749;51.636;4.948;2023-06-14T05:50:50;3.35;;;2.10;;
59189;SDS011;50749;51.636;4.948;2023-06-14T05:53:16;5.35;;;1.80;;
59189;SDS011;50749;51.636;4.948;2023-06-14T05:55:41;5.85;;;1.77;;
59189;SDS011;50749;51.636;4.948;2023-06-14T05:58:07;3.22;;;1.83;;
59189;SDS011;50749;51.636;4.948;2023-06-14T06:00:33;2.83;;;1.60;;
59189;SDS011;50749;51.636;4.948;2023-06-14T06:02:59;3.00;;;1.65;;
59189;SDS011;50749;51.636;4.948;2023-06-14T06:05:24;4.45;;;1.95;;
59189;SDS011;50749;51.636;4.948;2023-06-14T06:07:50;6.45;;;1.73;;
59189;SDS011;50749;51.636;4.948;2023-06-14T06:10:16;2.53;;;1.70;;
59189;SDS011;50749;51.636;4.948;2023-06-14T06:12:42;7.53;;;1.98;;
59189;SDS011;50749;51.636;4.948;2023-06-14T06:15:08;8.32;;;1.65;;
59189;SDS011;50749;51.636;4.948;2023-06-14T06:17:37;3.85;;;1.90;;
59189;SDS011;50749;51.636;4.948;2023-06-14T06:20:04;3.80;;;2.00;;
59189;SDS011;50749;51.636;4.948;2023-06-14T06:22:32;3.33;;;2.10;;
59189;SDS011;50749;51.636;4.948;2023-06-14T06:24:57;6.22;;;2.05;;
59189;SDS011;50749;51.636;4.948;2023-06-14T06:27:23;7.72;;;1.80;;
59189;SDS011;50749;51.636;4.948;2023-06-14T06:29:48;3.25;;;1.83;;
59189;SDS011;50749;51.636;4.948;2023-06-14T06:32:15;6.28;;;1.65;;
59189;SDS011;50749;51.636;4.948;2023-06-14T06:34:41;5.70;;;1.85;;
59189;SDS011;50749;51.636;4.948;2023-06-14T06:37:07;3.08;;;1.77;;
59189;SDS011;50749;51.636;4.948;2023-06-14T06:39:32;2.13;;;1.45;;
59189;SDS011;50749;51.636;4.948;2023-06-14T06:41:58;3.30;;;1.67;;
59189;SDS011;50749;51.636;4.948;2023-06-14T06:44:24;2.38;;;1.67;;
59189;SDS011;50749;51.636;4.948;2023-06-14T06:46:50;2.90;;;1.90;;
59189;SDS011;50749;51.636;4.948;2023-06-14T06:49:16;3.53;;;1.48;;
59189;SDS011;50749;51.636;4.948;2023-06-14T06:51:42;4.43;;;1.77;;
59189;SDS011;50749;51.636;4.948;2023-06-14T06:54:08;5.65;;;1.90;;
59189;SDS011;50749;51.636;4.948;2023-06-14T06:56:35;4.28;;;1.90;;
59189;SDS011;50749;51.636;4.948;2023-06-14T06:59:00;2.55;;;1.73;;
59189;SDS011;50749;51.636;4.948;2023-06-14T07:01:27;5.15;;;1.90;;
59189;SDS011;50749;51.636;4.948;2023-06-14T07:03:54;10.18;;;1.67;;
59189;SDS011;50749;51.636;4.948;2023-06-14T07:06:21;3.88;;;1.98;;
59189;SDS011;50749;51.636;4.948;2023-06-14T07:08:46;4.00;;;1.92;;
59189;SDS011;50749;51.636;4.948;2023-06-14T07:11:16;4.70;;;2.00;;
59189;SDS011;50749;51.636;4.948;2023-06-14T07:13:41;6.07;;;2.38;;
59189;SDS011;50749;51.636;4.948;2023-06-14T07:16:07;6.97;;;2.00;;
59189;SDS011;50749;51.636;4.948;2023-06-14T07:18:33;7.47;;;2.20;;
59189;SDS011;50749;51.636;4.948;2023-06-14T07:20:59;5.00;;;1.90;;
59189;SDS011;50749;51.636;4.948;2023-06-14T07:23:25;6.07;;;2.17;;
59189;SDS011;50749;51.636;4.948;2023-06-14T07:25:51;3.90;;;2.25;;
59189;SDS011;50749;51.636;4.948;2023-06-14T07:28:17;9.85;;;2.50;;
59189;SDS011;50749;51.636;4.948;2023-06-14T07:30:43;7.28;;;3.20;;
59189;SDS011;50749;51.636;4.948;2023-06-14T07:33:09;4.70;;;2.03;;
59189;SDS011;50749;51.636;4.948;2023-06-14T07:35:36;6.53;;;2.10;;
59189;SDS011;50749;51.636;4.948;2023-06-14T07:38:02;4.53;;;2.67;;
59189;SDS011;50749;51.636;4.948;2023-06-14T07:40:28;15.23;;;2.50;;
59189;SDS011;50749;51.636;4.948;2023-06-14T07:42:54;3.92;;;2.28;;
59189;SDS011;50749;51.636;4.948;2023-06-14T07:45:20;3.13;;;1.90;;
59189;SDS011;50749;51.636;4.948;2023-06-14T07:47:46;5.30;;;2.08;;
59189;SDS011;50749;51.636;4.948;2023-06-14T07:50:12;6.35;;;2.60;;
59189;SDS011;50749;51.636;4.948;2023-06-14T07:52:38;5.70;;;2.17;;
59189;SDS011;50749;51.636;4.948;2023-06-14T07:55:05;4.43;;;2.00;;
59189;SDS011;50749;51.636;4.948;2023-06-14T07:57:30;5.10;;;1.77;;
59189;SDS011;50749;51.636;4.948;2023-06-14T07:59:56;5.28;;;2.20;;
59189;SDS011;50749;51.636;4.948;2023-06-14T08:02:22;8.73;;;2.47;;
59189;SDS011;50749;51.636;4.948;2023-06-14T08:04:48;3.63;;;2.22;;
59189;SDS011;50749;51.636;4.948;2023-06-14T08:07:14;3.88;;;2.85;;
59189;SDS011;50749;51.636;4.948;2023-06-14T08:09:40;3.88;;;2.05;;
59189;SDS011;50749;51.636;4.948;2023-06-14T08:12:06;6.47;;;2.25;;
59189;SDS011;50749;51.636;4.948;2023-06-14T08:14:33;2.78;;;1.88;;
59189;SDS011;50749;51.636;4.948;2023-06-14T08:16:59;3.60;;;2.10;;
59189;SDS011;50749;51.636;4.948;2023-06-14T08:19:25;3.95;;;2.83;;
59189;SDS011;50749;51.636;4.948;2023-06-14T08:21:50;3.78;;;2.08;;
59189;SDS011;50749;51.636;4.948;2023-06-14T08:24:17;5.65;;;2.50;;
59189;SDS011;50749;51.636;4.948;2023-06-14T08:26:44;3.20;;;2.03;;
59189;SDS011;50749;51.636;4.948;2023-06-14T08:29:09;3.40;;;2.25;;
59189;SDS011;50749;51.636;4.948;2023-06-14T08:31:35;6.68;;;3.15;;
59189;SDS011;50749;51.636;4.948;2023-06-14T08:34:01;6.40;;;2.40;;
59189;SDS011;50749;51.636;4.948;2023-06-14T08:36:27;3.97;;;2.30;;
59189;SDS011;50749;51.636;4.948;2023-06-14T08:38:53;7.00;;;2.25;;
59189;SDS011;50749;51.636;4.948;2023-06-14T08:41:20;6.40;;;2.33;;
59189;SDS011;50749;51.636;4.948;2023-06-14T08:43:50;6.90;;;2.10;;
59189;SDS011;50749;51.636;4.948;2023-06-14T08:46:17;5.78;;;2.40;;
59189;SDS011;50749;51.636;4.948;2023-06-14T08:48:51;5.25;;;1.98;;
59189;SDS011;50749;51.636;4.948;2023-06-14T08:51:21;2.72;;;2.10;;
59189;SDS011;50749;51.636;4.948;2023-06-14T08:53:52;4.88;;;2.03;;
59189;SDS011;50749;51.636;4.948;2023-06-14T08:56:24;3.20;;;2.22;;
59189;SDS011;50749;51.636;4.948;2023-06-14T08:58:51;4.38;;;1.83;;
59189;SDS011;50749;51.636;4.948;2023-06-14T09:01:17;3.88;;;2.20;;
59189;SDS011;50749;51.636;4.948;2023-06-14T09:03:44;5.20;;;2.30;;
59189;SDS011;50749;51.636;4.948;2023-06-14T09:06:10;5.43;;;1.98;;
59189;SDS011;50749;51.636;4.948;2023-06-14T09:08:45;3.63;;;1.65;;
59189;SDS011;50749;51.636;4.948;2023-06-14T09:11:14;5.18;;;1.85;;
59189;SDS011;50749;51.636;4.948;2023-06-14T09:13:41;6.32;;;2.15;;
59189;SDS011;50749;51.636;4.948;2023-06-14T09:16:08;3.58;;;1.65;;
59189;SDS011;50749;51.636;4.948;2023-06-14T09:18:35;7.38;;;2.30;;
59189;SDS011;50749;51.636;4.948;2023-06-14T09:21:09;3.00;;;1.70;;
59189;SDS011;50749;51.636;4.948;2023-06-14T09:23:36;4.35;;;1.95;;
59189;SDS011;50749;51.636;4.948;2023-06-14T09:26:11;3.53;;;1.58;;
59189;SDS011;50749;51.636;4.948;2023-06-14T09:28:45;2.83;;;1.60;;
59189;SDS011;50749;51.636;4.948;2023-06-14T09:31:18;3.15;;;1.88;;
59189;SDS011;50749;51.636;4.948;2023-06-14T09:33:45;2.95;;;1.55;;
59189;SDS011;50749;51.636;4.948;2023-06-14T09:38:51;3.00;;;1.88;;
59189;SDS011;50749;51.636;4.948;2023-06-14T09:41:31;4.55;;;1.80;;
59189;SDS011;50749;51.636;4.948;2023-06-14T09:43:58;8.80;;;2.03;;
59189;SDS011;50749;51.636;4.948;2023-06-14T09:46:28;7.95;;;2.00;;
59189;SDS011;50749;51.636;4.948;2023-06-14T09:48:55;3.97;;;1.70;;
59189;SDS011;50749;51.636;4.948;2023-06-14T09:51:22;3.35;;;1.63;;
59189;SDS011;50749;51.636;4.948;2023-06-14T09:53:48;4.75;;;1.63;;
59189;SDS011;50749;51.636;4.948;2023-06-14T09:56:27;4.00;;;1.73;;
59189;SDS011;50749;51.636;4.948;2023-06-14T09:58:55;3.45;;;1.63;;
59189;SDS011;50749;51.636;4.948;2023-06-14T10:01:25;5.90;;;1.70;;
59189;SDS011;50749;51.636;4.948;2023-06-14T10:03:59;4.43;;;1.67;;
59189;SDS011;50749;51.636;4.948;2023-06-14T10:06:28;2.60;;;1.75;;
59189;SDS011;50749;51.636;4.948;2023-06-14T10:08:56;2.70;;;1.63;;
59189;SDS011;50749;51.636;4.948;2023-06-14T10:11:25;4.50;;;1.60;;
59189;SDS011;50749;51.636;4.948;2023-06-14T10:13:54;3.85;;;1.55;;
59189;SDS011;50749;51.636;4.948;2023-06-14T10:16:27;3.53;;;1.60;;
59189;SDS011;50749;51.636;4.948;2023-06-14T10:22:11;2.63;;;1.48;;
59189;SDS011;50749;51.636;4.948;2023-06-14T10:24:42;4.05;;;1.60;;
59189;SDS011;50749;51.636;4.948;2023-06-14T10:27:09;4.28;;;1.35;;
59189;SDS011;50749;51.636;4.948;2023-06-14T10:32:20;5.78;;;1.27;;
59189;SDS011;50749;51.636;4.948;2023-06-14T10:34:53;1.85;;;1.55;;
59189;SDS011;50749;51.636;4.948;2023-06-14T10:37:20;2.43;;;1.40;;
59189;SDS011;50749;51.636;4.948;2023-06-14T10:39:46;2.70;;;1.27;;
59189;SDS011;50749;51.636;4.948;2023-06-14T10:42:12;3.17;;;1.50;;
59189;SDS011;50749;51.636;4.948;2023-06-14T10:44:40;4.00;;;1.30;;
59189;SDS011;50749;51.636;4.948;2023-06-14T10:47:07;2.53;;;1.40;;
59189;SDS011;50749;51.636;4.948;2023-06-14T10:49:54;4.43;;;1.30;;
59189;SDS011;50749;51.636;4.948;2023-06-14T10:52:28;1.92;;;1.20;;
59189;SDS011;50749;51.636;4.948;2023-06-14T10:55:05;2.15;;;1.00;;
59189;SDS011;50749;51.636;4.948;2023-06-14T10:57:35;2.90;;;1.00;;
59189;SDS011;50749;51.636;4.948;2023-06-14T11:00:03;2.80;;;1.20;;
59189;SDS011;50749;51.636;4.948;2023-06-14T11:05:15;5.38;;;1.17;;
59189;SDS011;50749;51.636;4.948;2023-06-14T11:10:41;2.63;;;1.00;;
59189;SDS011;50749;51.636;4.948;2023-06-14T11:13:08;3.30;;;0.88;;
59189;SDS011;50749;51.636;4.948;2023-06-14T11:15:35;2.25;;;1.00;;
59189;SDS011;50749;51.636;4.948;2023-06-14T11:18:05;2.05;;;1.30;;
59189;SDS011;50749;51.636;4.948;2023-06-14T11:20:33;5.43;;;1.27;;
59189;SDS011;50749;51.636;4.948;2023-06-14T11:23:03;4.05;;;1.17;;
59189;SDS011;50749;51.636;4.948;2023-06-14T11:25:29;3.55;;;1.25;;
59189;SDS011;50749;51.636;4.948;2023-06-14T11:27:56;1.45;;;0.80;;
59189;SDS011;50749;51.636;4.948;2023-06-14T11:30:22;1.42;;;0.80;;
59189;SDS011;50749;51.636;4.948;2023-06-14T11:32:49;1.48;;;0.93;;
59189;SDS011;50749;51.636;4.948;2023-06-14T11:35:17;5.60;;;0.90;;
59189;SDS011;50749;51.636;4.948;2023-06-14T11:37:44;6.35;;;1.10;;
59189;SDS011;50749;51.636;4.948;2023-06-14T11:40:11;3.38;;;1.10;;
59189;SDS011;50749;51.636;4.948;2023-06-14T11:42:41;2.00;;;0.90;;
59189;SDS011;50749;51.636;4.948;2023-06-14T11:45:07;3.40;;;1.10;;
59189;SDS011;50749;51.636;4.948;2023-06-14T11:47:34;1.60;;;1.10;;
59189;SDS011;50749;51.636;4.948;2023-06-14T11:50:01;2.00;;;1.10;;
59189;SDS011;50749;51.636;4.948;2023-06-14T11:52:27;1.58;;;0.90;;
59189;SDS011;50749;51.636;4.948;2023-06-14T11:54:53;2.83;;;1.00;;
59189;SDS011;50749;51.636;4.948;2023-06-14T11:57:19;1.20;;;0.88;;
59189;SDS011;50749;51.636;4.948;2023-06-14T11:59:45;4.43;;;1.13;;
59189;SDS011;50749;51.636;4.948;2023-06-14T12:02:15;1.60;;;0.93;;
59189;SDS011;50749;51.636;4.948;2023-06-14T12:04:42;3.70;;;1.20;;
59189;SDS011;50749;51.636;4.948;2023-06-14T12:07:12;4.30;;;1.10;;
59189;SDS011;50749;51.636;4.948;2023-06-14T12:09:41;3.30;;;1.40;;
59189;SDS011;50749;51.636;4.948;2023-06-14T12:12:11;4.38;;;1.10;;
59189;SDS011;50749;51.636;4.948;2023-06-14T12:14:37;3.55;;;1.10;;
59189;SDS011;50749;51.636;4.948;2023-06-14T12:17:06;3.63;;;1.23;;
59189;SDS011;50749;51.636;4.948;2023-06-14T12:19:32;3.20;;;1.00;;
59189;SDS011;50749;51.636;4.948;2023-06-14T12:21:59;3.25;;;0.95;;
59189;SDS011;50749;51.636;4.948;2023-06-14T12:24:30;4.78;;;1.20;;
59189;SDS011;50749;51.636;4.948;2023-06-14T12:26:57;3.40;;;0.80;;
59189;SDS011;50749;51.636;4.948;2023-06-14T12:29:28;2.92;;;1.00;;
59189;SDS011;50749;51.636;4.948;2023-06-14T12:31:54;1.70;;;0.90;;
59189;SDS011;50749;51.636;4.948;2023-06-14T12:34:25;5.13;;;1.10;;
59189;SDS011;50749;51.636;4.948;2023-06-14T12:36:55;4.03;;;0.80;;
59189;SDS011;50749;51.636;4.948;2023-06-14T12:39:21;2.72;;;1.23;;
59189;SDS011;50749;51.636;4.948;2023-06-14T12:41:47;4.93;;;1.13;;
59189;SDS011;50749;51.636;4.948;2023-06-14T12:44:14;2.65;;;1.23;;
59189;SDS011;50749;51.636;4.948;2023-06-14T12:46:43;1.92;;;0.88;;
59189;SDS011;50749;51.636;4.948;2023-06-14T12:49:10;1.60;;;0.90;;
59189;SDS011;50749;51.636;4.948;2023-06-14T12:51:37;2.28;;;0.80;;
59189;SDS011;50749;51.636;4.948;2023-06-14T12:54:04;1.42;;;0.98;;
59189;SDS011;50749;51.636;4.948;2023-06-14T12:56:30;1.88;;;0.95;;
59189;SDS011;50749;51.636;4.948;2023-06-14T12:58:55;1.65;;;0.90;;
59189;SDS011;50749;51.636;4.948;2023-06-14T13:01:21;1.52;;;0.98;;
59189;SDS011;50749;51.636;4.948;2023-06-14T13:03:47;2.90;;;1.38;;
59189;SDS011;50749;51.636;4.948;2023-06-14T13:06:13;4.35;;;1.70;;
59189;SDS011;50749;51.636;4.948;2023-06-14T13:08:39;1.40;;;0.88;;
59189;SDS011;50749;51.636;4.948;2023-06-14T13:11:05;2.00;;;1.00;;
59189;SDS011;50749;51.636;4.948;2023-06-14T13:13:30;3.28;;;1.10;;
59189;SDS011;50749;51.636;4.948;2023-06-14T13:15:56;6.63;;;1.40;;
59189;SDS011;50749;51.636;4.948;2023-06-14T13:18:21;2.20;;;1.00;;
59189;SDS011;50749;51.636;4.948;2023-06-14T13:20:47;2.38;;;1.20;;
59189;SDS011;50749;51.636;4.948;2023-06-14T13:23:13;4.40;;;0.88;;
59189;SDS011;50749;51.636;4.948;2023-06-14T13:25:41;1.60;;;0.90;;
59189;SDS011;50749;51.636;4.948;2023-06-14T13:28:06;1.83;;;1.02;;
59189;SDS011;50749;51.636;4.948;2023-06-14T13:30:32;1.10;;;0.80;;
59189;SDS011;50749;51.636;4.948;2023-06-14T13:32:59;2.85;;;1.10;;
59189;SDS011;50749;51.636;4.948;2023-06-14T13:35:25;1.77;;;1.17;;
59189;SDS011;50749;51.636;4.948;2023-06-14T13:37:51;2.55;;;1.05;;
59189;SDS011;50749;51.636;4.948;2023-06-14T13:40:17;2.13;;;1.08;;
59189;SDS011;50749;51.636;4.948;2023-06-14T13:42:43;2.88;;;0.93;;
59189;SDS011;50749;51.636;4.948;2023-06-14T13:45:10;1.90;;;0.98;;
59189;SDS011;50749;51.636;4.948;2023-06-14T13:47:36;2.33;;;0.88;;
59189;SDS011;50749;51.636;4.948;2023-06-14T13:50:03;1.92;;;1.08;;
59189;SDS011;50749;51.636;4.948;2023-06-14T13:52:29;7.00;;;1.00;;
59189;SDS011;50749;51.636;4.948;2023-06-14T13:54:55;1.65;;;1.00;;
59189;SDS011;50749;51.636;4.948;2023-06-14T13:57:20;1.95;;;1.13;;
59189;SDS011;50749;51.636;4.948;2023-06-14T13:59:47;2.15;;;1.13;;
59189;SDS011;50749;51.636;4.948;2023-06-14T14:02:13;2.03;;;1.05;;
59189;SDS011;50749;51.636;4.948;2023-06-14T14:04:40;3.40;;;1.00;;
59189;SDS011;50749;51.636;4.948;2023-06-14T14:07:06;4.47;;;1.10;;
59189;SDS011;50749;51.636;4.948;2023-06-14T14:09:33;5.28;;;0.90;;
59189;SDS011;50749;51.636;4.948;2023-06-14T14:12:03;1.73;;;0.90;;
59189;SDS011;50749;51.636;4.948;2023-06-14T14:14:29;1.73;;;1.13;;
59189;SDS011;50749;51.636;4.948;2023-06-14T14:16:57;1.88;;;1.00;;
59189;SDS011;50749;51.636;4.948;2023-06-14T14:19:23;1.90;;;1.05;;
59189;SDS011;50749;51.636;4.948;2023-06-14T14:21:49;5.50;;;1.10;;
59189;SDS011;50749;51.636;4.948;2023-06-14T14:24:15;2.13;;;1.00;;
59189;SDS011;50749;51.636;4.948;2023-06-14T14:26:41;2.53;;;0.80;;
59189;SDS011;50749;51.636;4.948;2023-06-14T14:29:07;2.42;;;1.10;;
59189;SDS011;50749;51.636;4.948;2023-06-14T14:31:33;3.97;;;0.95;;
59189;SDS011;50749;51.636;4.948;2023-06-14T14:33:59;1.63;;;0.90;;
59189;SDS011;50749;51.636;4.948;2023-06-14T14:36:25;3.83;;;1.00;;
59189;SDS011;50749;51.636;4.948;2023-06-14T14:38:51;2.40;;;1.20;;
59189;SDS011;50749;51.636;4.948;2023-06-14T14:41:17;6.53;;;1.33;;
59189;SDS011;50749;51.636;4.948;2023-06-14T14:43:42;5.82;;;1.15;;
59189;SDS011;50749;51.636;4.948;2023-06-14T14:46:08;5.68;;;1.05;;
59189;SDS011;50749;51.636;4.948;2023-06-14T15:33:24;3.95;;;0.95;;
59189;SDS011;50749;51.636;4.948;2023-06-14T15:35:50;5.75;;;1.10;;
59189;SDS011;50749;51.636;4.948;2023-06-14T15:38:16;9.48;;;1.30;;
59189;SDS011;50749;51.636;4.948;2023-06-14T15:40:41;4.80;;;1.10;;
59189;SDS011;50749;51.636;4.948;2023-06-14T15:43:07;2.17;;;0.95;;
59189;SDS011;50749;51.636;4.948;2023-06-14T15:45:33;1.15;;;0.90;;
59189;SDS011;50749;51.636;4.948;2023-06-14T15:47:58;6.32;;;1.42;;
59189;SDS011;50749;51.636;4.948;2023-06-14T15:50:25;4.43;;;1.00;;